sensor_id;sensor_type;location;lat;lon;timestamp;temperature;humidity
51996;DHT22;38010;53.264;6.592;2022-09-20T00:00:45;17.20;99.90
51996;DHT22;38010;53.264;6.592;2022-09-20T00:03:12;17.20;99.90
51996;DHT22;38010;53.264;6.592;2022-09-20T00:05:41;17.20;99.90
51996;DHT22;38010;53.264;6.592;2022-09-20T00:08:12;17.20;99.90
51996;DHT22;38010;53.264;6.592;2022-09-20T00:10:38;17.20;99.90
51996;DHT22;38010;53.264;6.592;2022-09-20T00:13:08;17.20;99.90
51996;DHT22;38010;53.264;6.592;2022-09-20T00:15:42;17.20;99.90
51996;DHT22;38010;53.264;6.592;2022-09-20T00:18:08;17.20;99.90
51996;DHT22;38010;53.264;6.592;2022-09-20T00:20:34;17.20;99.90
51996;DHT22;38010;53.264;6.592;2022-09-20T00:22:59;17.20;99.90
51996;DHT22;38010;53.264;6.592;2022-09-20T00:25:25;17.20;99.90
51996;DHT22;38010;53.264;6.592;2022-09-20T00:27:51;17.20;99.90
51996;DHT22;38010;53.264;6.592;2022-09-20T00:30:16;17.20;99.90
51996;DHT22;38010;53.264;6.592;2022-09-20T00:32:42;17.20;99.90
51996;DHT22;38010;53.264;6.592;2022-09-20T00:35:08;17.20;99.90
51996;DHT22;38010;53.264;6.592;2022-09-20T00:37:40;17.20;99.90
51996;DHT22;38010;53.264;6.592;2022-09-20T00:40:09;17.20;99.90
51996;DHT22;38010;53.264;6.592;2022-09-20T00:42:35;17.20;99.90
51996;DHT22;38010;53.264;6.592;2022-09-20T00:45:24;17.20;99.90
51996;DHT22;38010;53.264;6.592;2022-09-20T00:51:02;17.20;99.90
51996;DHT22;38010;53.264;6.592;2022-09-20T00:53:34;17.20;99.90
51996;DHT22;38010;53.264;6.592;2022-09-20T00:56:08;17.20;99.90
51996;DHT22;38010;53.264;6.592;2022-09-20T00:58:35;17.20;99.90
51996;DHT22;38010;53.264;6.592;2022-09-20T01:01:03;17.10;99.90
51996;DHT22;38010;53.264;6.592;2022-09-20T01:03:30;17.10;99.90
51996;DHT22;38010;53.264;6.592;2022-09-20T01:06:02;17.10;99.90
51996;DHT22;38010;53.264;6.592;2022-09-20T01:08:29;17.20;99.90
51996;DHT22;38010;53.264;6.592;2022-09-20T01:10:56;17.10;99.90
51996;DHT22;38010;53.264;6.592;2022-09-20T01:13:21;17.10;99.90
51996;DHT22;38010;53.264;6.592;2022-09-20T01:15:48;17.10;99.90
51996;DHT22;38010;53.264;6.592;2022-09-20T01:18:15;17.10;99.90
51996;DHT22;38010;53.264;6.592;2022-09-20T01:20:43;17.10;99.90
51996;DHT22;38010;53.264;6.592;2022-09-20T01:28:34;17.10;99.90
51996;DHT22;38010;53.264;6.592;2022-09-20T01:31:25;17.10;99.90
51996;DHT22;38010;53.264;6.592;2022-09-20T01:36:51;17.10;99.90
51996;DHT22;38010;53.264;6.592;2022-09-20T01:42:08;17.10;99.90
51996;DHT22;38010;53.264;6.592;2022-09-20T01:59:15;17.10;99.90
51996;DHT22;38010;53.264;6.592;2022-09-20T02:02:08;17.10;99.90
51996;DHT22;38010;53.264;6.592;2022-09-20T02:18:23;17.00;99.90
51996;DHT22;38010;53.264;6.592;2022-09-20T02:23:43;17.00;99.90
51996;DHT22;38010;53.264;6.592;2022-09-20T02:26:25;17.00;99.90
51996;DHT22;38010;53.264;6.592;2022-09-20T02:34:48;17.00;99.90
51996;DHT22;38010;53.264;6.592;2022-09-20T02:45:36;17.00;99.90
51996;DHT22;38010;53.264;6.592;2022-09-20T02:48:04;17.00;99.90
51996;DHT22;38010;53.264;6.592;2022-09-20T02:51:11;17.00;99.90
51996;DHT22;38010;53.264;6.592;2022-09-20T02:53:54;17.00;99.90
51996;DHT22;38010;53.264;6.592;2022-09-20T02:56:50;17.00;99.90
51996;DHT22;38010;53.264;6.592;2022-09-20T03:18:21;17.00;99.90
51996;DHT22;38010;53.264;6.592;2022-09-20T03:23:47;17.00;99.90
51996;DHT22;38010;53.264;6.592;2022-09-20T03:29:04;16.90;99.90
51996;DHT22;38010;53.264;6.592;2022-09-20T03:51:28;16.90;99.90
51996;DHT22;38010;53.264;6.592;2022-09-20T04:00:01;16.90;99.90
51996;DHT22;38010;53.264;6.592;2022-09-20T04:05:00;16.90;99.90
51996;DHT22;38010;53.264;6.592;2022-09-20T04:10:28;16.80;99.90
51996;DHT22;38010;53.264;6.592;2022-09-20T04:16:00;16.90;99.90
51996;DHT22;38010;53.264;6.592;2022-09-20T04:18:42;16.80;99.90
51996;DHT22;38010;53.264;6.592;2022-09-20T04:21:19;16.90;99.90
51996;DHT22;38010;53.264;6.592;2022-09-20T04:26:43;16.80;99.90
51996;DHT22;38010;53.264;6.592;2022-09-20T04:29:46;16.80;99.90
51996;DHT22;38010;53.264;6.592;2022-09-20T04:35:39;16.80;99.90
51996;DHT22;38010;53.264;6.592;2022-09-20T04:38:25;16.80;99.90
51996;DHT22;38010;53.264;6.592;2022-09-20T04:57:16;16.80;99.90
51996;DHT22;38010;53.264;6.592;2022-09-20T05:16:59;16.80;99.90
51996;DHT22;38010;53.264;6.592;2022-09-20T05:19:31;16.80;99.90
51996;DHT22;38010;53.264;6.592;2022-09-20T05:28:07;16.70;99.90
51996;DHT22;38010;53.264;6.592;2022-09-20T05:31:07;16.80;99.90
51996;DHT22;38010;53.264;6.592;2022-09-20T05:33:56;16.80;99.90
51996;DHT22;38010;53.264;6.592;2022-09-20T05:36:53;16.70;99.90
51996;DHT22;38010;53.264;6.592;2022-09-20T05:42:16;16.70;99.90
51996;DHT22;38010;53.264;6.592;2022-09-20T05:53:25;16.70;99.90
51996;DHT22;38010;53.264;6.592;2022-09-20T05:56:26;16.70;99.90
51996;DHT22;38010;53.264;6.592;2022-09-20T06:22:23;16.70;99.90
51996;DHT22;38010;53.264;6.592;2022-09-20T06:30:20;16.70;99.90
51996;DHT22;38010;53.264;6.592;2022-09-20T06:33:14;16.70;99.90
51996;DHT22;38010;53.264;6.592;2022-09-20T06:35:45;16.70;99.90
51996;DHT22;38010;53.264;6.592;2022-09-20T06:38:19;16.70;99.90
51996;DHT22;38010;53.264;6.592;2022-09-20T06:41:09;16.70;99.90
51996;DHT22;38010;53.264;6.592;2022-09-20T06:44:00;16.70;99.90
51996;DHT22;38010;53.264;6.592;2022-09-20T06:46:32;16.60;99.90
51996;DHT22;38010;53.264;6.592;2022-09-20T06:48:58;16.70;99.90
51996;DHT22;38010;53.264;6.592;2022-09-20T06:51:26;16.70;99.90
51996;DHT22;38010;53.264;6.592;2022-09-20T06:53:54;16.70;99.90
51996;DHT22;38010;53.264;6.592;2022-09-20T06:56:26;16.70;99.90
51996;DHT22;38010;53.264;6.592;2022-09-20T06:58:52;16.60;99.90
51996;DHT22;38010;53.264;6.592;2022-09-20T07:01:19;16.70;99.90
51996;DHT22;38010;53.264;6.592;2022-09-20T07:03:45;16.70;99.90
51996;DHT22;38010;53.264;6.592;2022-09-20T07:06:11;16.60;99.90
51996;DHT22;38010;53.264;6.592;2022-09-20T07:08:37;16.70;99.90
51996;DHT22;38010;53.264;6.592;2022-09-20T07:11:08;16.70;99.90
51996;DHT22;38010;53.264;6.592;2022-09-20T07:13:35;16.70;99.90
51996;DHT22;38010;53.264;6.592;2022-09-20T07:16:05;16.70;99.90
51996;DHT22;38010;53.264;6.592;2022-09-20T07:18:32;16.70;99.90
51996;DHT22;38010;53.264;6.592;2022-09-20T07:20:59;16.70;99.90
51996;DHT22;38010;53.264;6.592;2022-09-20T07:23:29;16.70;99.90
51996;DHT22;38010;53.264;6.592;2022-09-20T07:25:55;16.70;99.90
51996;DHT22;38010;53.264;6.592;2022-09-20T07:28:26;16.70;99.90
51996;DHT22;38010;53.264;6.592;2022-09-20T07:30:52;16.70;99.90
51996;DHT22;38010;53.264;6.592;2022-09-20T07:33:17;16.70;99.90
51996;DHT22;38010;53.264;6.592;2022-09-20T07:35:52;16.70;99.90
51996;DHT22;38010;53.264;6.592;2022-09-20T07:38:19;16.60;99.90
51996;DHT22;38010;53.264;6.592;2022-09-20T07:40:45;16.70;99.90
51996;DHT22;38010;53.264;6.592;2022-09-20T07:43:17;16.70;99.90
51996;DHT22;38010;53.264;6.592;2022-09-20T07:45:43;16.70;99.90
51996;DHT22;38010;53.264;6.592;2022-09-20T07:48:09;16.70;99.90
51996;DHT22;38010;53.264;6.592;2022-09-20T07:50:35;16.70;99.90
51996;DHT22;38010;53.264;6.592;2022-09-20T07:53:01;16.70;99.90
51996;DHT22;38010;53.264;6.592;2022-09-20T07:55:28;16.70;99.90
51996;DHT22;38010;53.264;6.592;2022-09-20T07:57:53;16.80;99.90
51996;DHT22;38010;53.264;6.592;2022-09-20T08:00:20;16.70;99.90
51996;DHT22;38010;53.264;6.592;2022-09-20T08:02:45;16.70;99.90
51996;DHT22;38010;53.264;6.592;2022-09-20T08:05:11;16.70;99.90
51996;DHT22;38010;53.264;6.592;2022-09-20T08:07:37;16.70;99.90
51996;DHT22;38010;53.264;6.592;2022-09-20T08:10:04;16.70;99.90
51996;DHT22;38010;53.264;6.592;2022-09-20T08:12:30;16.70;99.90
51996;DHT22;38010;53.264;6.592;2022-09-20T08:14:57;16.70;99.90
51996;DHT22;38010;53.264;6.592;2022-09-20T08:17:23;16.70;99.90
51996;DHT22;38010;53.264;6.592;2022-09-20T08:19:49;16.70;99.90
51996;DHT22;38010;53.264;6.592;2022-09-20T08:22:17;16.70;99.90
51996;DHT22;38010;53.264;6.592;2022-09-20T08:24:43;16.70;99.90
51996;DHT22;38010;53.264;6.592;2022-09-20T08:27:08;16.70;99.90
51996;DHT22;38010;53.264;6.592;2022-09-20T08:29:34;16.70;99.90
51996;DHT22;38010;53.264;6.592;2022-09-20T08:32:00;16.70;99.90
51996;DHT22;38010;53.264;6.592;2022-09-20T08:34:26;16.70;99.90
51996;DHT22;38010;53.264;6.592;2022-09-20T08:36:52;16.70;99.90
51996;DHT22;38010;53.264;6.592;2022-09-20T08:39:21;16.70;99.90
51996;DHT22;38010;53.264;6.592;2022-09-20T08:44:48;16.70;99.90
51996;DHT22;38010;53.264;6.592;2022-09-20T08:47:20;16.80;99.90
51996;DHT22;38010;53.264;6.592;2022-09-20T08:49:48;16.70;99.90
51996;DHT22;38010;53.264;6.592;2022-09-20T08:52:32;16.80;99.90
51996;DHT22;38010;53.264;6.592;2022-09-20T08:55:00;16.80;99.90
51996;DHT22;38010;53.264;6.592;2022-09-20T08:57:29;16.80;99.90
51996;DHT22;38010;53.264;6.592;2022-09-20T08:59:57;16.80;99.90
51996;DHT22;38010;53.264;6.592;2022-09-20T09:02:23;16.80;99.90
51996;DHT22;38010;53.264;6.592;2022-09-20T09:04:49;16.80;99.90
51996;DHT22;38010;53.264;6.592;2022-09-20T09:07:18;16.80;99.90
51996;DHT22;38010;53.264;6.592;2022-09-20T09:09:47;16.80;99.90
51996;DHT22;38010;53.264;6.592;2022-09-20T09:12:36;16.80;99.90
51996;DHT22;38010;53.264;6.592;2022-09-20T09:15:20;16.80;99.90
51996;DHT22;38010;53.264;6.592;2022-09-20T09:17:48;16.80;99.90
51996;DHT22;38010;53.264;6.592;2022-09-20T09:20:17;16.80;99.90
51996;DHT22;38010;53.264;6.592;2022-09-20T09:22:46;16.80;99.90
51996;DHT22;38010;53.264;6.592;2022-09-20T09:30:44;16.80;99.90
51996;DHT22;38010;53.264;6.592;2022-09-20T09:33:26;16.90;99.90
51996;DHT22;38010;53.264;6.592;2022-09-20T09:36:06;16.80;99.90
51996;DHT22;38010;53.264;6.592;2022-09-20T09:38:37;16.80;99.90
51996;DHT22;38010;53.264;6.592;2022-09-20T09:41:05;16.80;99.90
51996;DHT22;38010;53.264;6.592;2022-09-20T09:43:35;16.80;99.90
51996;DHT22;38010;53.264;6.592;2022-09-20T09:46:19;16.90;99.90
51996;DHT22;38010;53.264;6.592;2022-09-20T09:49:07;16.90;99.90
51996;DHT22;38010;53.264;6.592;2022-09-20T09:51:35;16.90;99.90
51996;DHT22;38010;53.264;6.592;2022-09-20T09:54:02;16.80;99.90
51996;DHT22;38010;53.264;6.592;2022-09-20T09:59:37;16.90;99.90
51996;DHT22;38010;53.264;6.592;2022-09-20T10:02:26;16.90;99.90
51996;DHT22;38010;53.264;6.592;2022-09-20T10:07:49;16.90;99.90
51996;DHT22;38010;53.264;6.592;2022-09-20T10:32:08;16.80;99.90
51996;DHT22;38010;53.264;6.592;2022-09-20T10:48:31;16.90;99.90
51996;DHT22;38010;53.264;6.592;2022-09-20T10:51:03;16.90;99.90
51996;DHT22;38010;53.264;6.592;2022-09-20T10:56:38;16.90;99.90
51996;DHT22;38010;53.264;6.592;2022-09-20T11:02:20;16.90;99.90
51996;DHT22;38010;53.264;6.592;2022-09-20T11:07:52;16.90;99.90
51996;DHT22;38010;53.264;6.592;2022-09-20T11:10:30;16.90;99.90
51996;DHT22;38010;53.264;6.592;2022-09-20T11:15:33;16.90;99.90
51996;DHT22;38010;53.264;6.592;2022-09-20T11:20:28;16.90;99.90
51996;DHT22;38010;53.264;6.592;2022-09-20T11:23:09;16.90;99.90
51996;DHT22;38010;53.264;6.592;2022-09-20T11:25:49;16.90;99.90
51996;DHT22;38010;53.264;6.592;2022-09-20T11:28:30;16.90;99.90
51996;DHT22;38010;53.264;6.592;2022-09-20T11:31:06;16.90;99.90
51996;DHT22;38010;53.264;6.592;2022-09-20T11:33:45;16.90;99.90
51996;DHT22;38010;53.264;6.592;2022-09-20T11:36:29;16.90;99.90
51996;DHT22;38010;53.264;6.592;2022-09-20T11:39:04;16.90;99.90
51996;DHT22;38010;53.264;6.592;2022-09-20T11:41:33;16.90;99.90
51996;DHT22;38010;53.264;6.592;2022-09-20T11:44:08;16.90;99.90
51996;DHT22;38010;53.264;6.592;2022-09-20T11:46:49;16.90;99.90
51996;DHT22;38010;53.264;6.592;2022-09-20T11:52:37;16.90;99.90
51996;DHT22;38010;53.264;6.592;2022-09-20T11:58:18;16.90;99.90
51996;DHT22;38010;53.264;6.592;2022-09-20T12:00:48;16.90;99.90
51996;DHT22;38010;53.264;6.592;2022-09-20T12:03:35;16.90;99.90
51996;DHT22;38010;53.264;6.592;2022-09-20T12:06:23;16.90;99.90
51996;DHT22;38010;53.264;6.592;2022-09-20T12:08:51;16.90;99.90
51996;DHT22;38010;53.264;6.592;2022-09-20T12:11:32;16.90;99.90
51996;DHT22;38010;53.264;6.592;2022-09-20T12:14:27;16.90;99.90
51996;DHT22;38010;53.264;6.592;2022-09-20T12:16:54;16.90;99.90
51996;DHT22;38010;53.264;6.592;2022-09-20T12:24:33;17.00;99.90
51996;DHT22;38010;53.264;6.592;2022-09-20T12:30:03;17.00;99.90
51996;DHT22;38010;53.264;6.592;2022-09-20T12:32:33;17.00;99.90
51996;DHT22;38010;53.264;6.592;2022-09-20T12:41:06;17.10;99.90
51996;DHT22;38010;53.264;6.592;2022-09-20T12:43:36;17.10;99.90
51996;DHT22;38010;53.264;6.592;2022-09-20T12:46:03;17.10;99.90
51996;DHT22;38010;53.264;6.592;2022-09-20T12:48:35;17.10;99.90
51996;DHT22;38010;53.264;6.592;2022-09-20T12:51:16;17.20;99.90
51996;DHT22;38010;53.264;6.592;2022-09-20T12:54:07;17.20;99.90
51996;DHT22;38010;53.264;6.592;2022-09-20T12:56:37;17.30;99.90
51996;DHT22;38010;53.264;6.592;2022-09-20T12:59:05;17.30;99.90
51996;DHT22;38010;53.264;6.592;2022-09-20T13:01:43;17.40;99.90
51996;DHT22;38010;53.264;6.592;2022-09-20T13:04:40;17.50;99.90
51996;DHT22;38010;53.264;6.592;2022-09-20T13:07:34;17.50;99.90
51996;DHT22;38010;53.264;6.592;2022-09-20T13:10:12;17.60;99.90
51996;DHT22;38010;53.264;6.592;2022-09-20T13:12:41;17.60;99.90
51996;DHT22;38010;53.264;6.592;2022-09-20T13:15:17;17.60;99.90
51996;DHT22;38010;53.264;6.592;2022-09-20T13:17:45;17.70;99.90
51996;DHT22;38010;53.264;6.592;2022-09-20T13:20:31;17.80;99.90
51996;DHT22;38010;53.264;6.592;2022-09-20T13:23:00;17.90;99.90
51996;DHT22;38010;53.264;6.592;2022-09-20T13:25:27;18.00;99.90
51996;DHT22;38010;53.264;6.592;2022-09-20T13:27:56;18.10;99.90
51996;DHT22;38010;53.264;6.592;2022-09-20T13:30:26;18.10;99.90
51996;DHT22;38010;53.264;6.592;2022-09-20T13:33:19;18.10;99.90
51996;DHT22;38010;53.264;6.592;2022-09-20T13:35:47;18.20;99.90
51996;DHT22;38010;53.264;6.592;2022-09-20T13:38:17;18.20;99.90
51996;DHT22;38010;53.264;6.592;2022-09-20T13:40:47;18.10;99.90
51996;DHT22;38010;53.264;6.592;2022-09-20T13:43:31;18.10;99.90
51996;DHT22;38010;53.264;6.592;2022-09-20T13:46:05;18.10;99.90
51996;DHT22;38010;53.264;6.592;2022-09-20T13:48:31;18.00;99.90
51996;DHT22;38010;53.264;6.592;2022-09-20T13:50:57;18.00;99.90
51996;DHT22;38010;53.264;6.592;2022-09-20T13:53:26;17.90;99.90
51996;DHT22;38010;53.264;6.592;2022-09-20T13:55:52;17.90;99.90
51996;DHT22;38010;53.264;6.592;2022-09-20T13:58:32;17.80;99.90
51996;DHT22;38010;53.264;6.592;2022-09-20T14:01:04;17.80;99.90
51996;DHT22;38010;53.264;6.592;2022-09-20T14:03:32;17.80;99.90
51996;DHT22;38010;53.264;6.592;2022-09-20T14:06:01;17.80;99.90
51996;DHT22;38010;53.264;6.592;2022-09-20T14:08:39;17.70;99.90
51996;DHT22;38010;53.264;6.592;2022-09-20T14:11:23;17.70;99.90
51996;DHT22;38010;53.264;6.592;2022-09-20T14:13:52;17.70;99.90
51996;DHT22;38010;53.264;6.592;2022-09-20T14:16:33;17.80;99.90
51996;DHT22;38010;53.264;6.592;2022-09-20T14:19:01;17.80;99.90
51996;DHT22;38010;53.264;6.592;2022-09-20T14:21:31;17.90;99.90
51996;DHT22;38010;53.264;6.592;2022-09-20T14:23:59;17.90;99.90
51996;DHT22;38010;53.264;6.592;2022-09-20T14:26:30;17.80;99.90
51996;DHT22;38010;53.264;6.592;2022-09-20T14:34:43;17.90;99.90
51996;DHT22;38010;53.264;6.592;2022-09-20T14:37:17;17.90;99.90
51996;DHT22;38010;53.264;6.592;2022-09-20T14:39:50;17.90;99.90
51996;DHT22;38010;53.264;6.592;2022-09-20T14:42:41;17.80;99.90
51996;DHT22;38010;53.264;6.592;2022-09-20T14:45:25;17.80;99.90
51996;DHT22;38010;53.264;6.592;2022-09-20T14:47:59;17.80;99.90
51996;DHT22;38010;53.264;6.592;2022-09-20T14:50:31;17.70;99.90
51996;DHT22;38010;53.264;6.592;2022-09-20T14:55:25;17.70;99.90
51996;DHT22;38010;53.264;6.592;2022-09-20T14:58:06;17.60;99.90
51996;DHT22;38010;53.264;6.592;2022-09-20T15:00:49;17.60;99.90
51996;DHT22;38010;53.264;6.592;2022-09-20T15:03:23;17.60;99.90
51996;DHT22;38010;53.264;6.592;2022-09-20T15:05:49;17.60;99.90
51996;DHT22;38010;53.264;6.592;2022-09-20T15:08:15;17.60;99.90
51996;DHT22;38010;53.264;6.592;2022-09-20T15:10:42;17.50;99.90
51996;DHT22;38010;53.264;6.592;2022-09-20T15:13:10;17.50;99.90
51996;DHT22;38010;53.264;6.592;2022-09-20T15:15:36;17.50;99.90
51996;DHT22;38010;53.264;6.592;2022-09-20T15:18:02;17.50;99.90
51996;DHT22;38010;53.264;6.592;2022-09-20T15:20:28;17.50;99.90
51996;DHT22;38010;53.264;6.592;2022-09-20T15:22:53;17.50;99.90
51996;DHT22;38010;53.264;6.592;2022-09-20T15:25:20;17.50;99.90
51996;DHT22;38010;53.264;6.592;2022-09-20T15:27:47;17.50;99.90
51996;DHT22;38010;53.264;6.592;2022-09-20T15:30:17;17.40;99.90
51996;DHT22;38010;53.264;6.592;2022-09-20T15:32:44;17.40;99.90
51996;DHT22;38010;53.264;6.592;2022-09-20T15:35:11;17.40;99.90
51996;DHT22;38010;53.264;6.592;2022-09-20T15:37:37;17.40;99.90
51996;DHT22;38010;53.264;6.592;2022-09-20T15:40:05;17.40;99.90
51996;DHT22;38010;53.264;6.592;2022-09-20T15:42:31;17.40;99.90
51996;DHT22;38010;53.264;6.592;2022-09-20T15:44:57;17.40;99.90
51996;DHT22;38010;53.264;6.592;2022-09-20T15:47:22;17.40;99.90
51996;DHT22;38010;53.264;6.592;2022-09-20T15:49:49;17.40;99.90
51996;DHT22;38010;53.264;6.592;2022-09-20T15:52:15;17.40;99.90
51996;DHT22;38010;53.264;6.592;2022-09-20T15:54:41;17.30;99.90
51996;DHT22;38010;53.264;6.592;2022-09-20T15:57:07;17.40;99.90
51996;DHT22;38010;53.264;6.592;2022-09-20T15:59:33;17.30;99.90
51996;DHT22;38010;53.264;6.592;2022-09-20T16:01:59;17.30;99.90
51996;DHT22;38010;53.264;6.592;2022-09-20T16:04:25;17.30;99.90
51996;DHT22;38010;53.264;6.592;2022-09-20T16:06:53;17.30;99.90
51996;DHT22;38010;53.264;6.592;2022-09-20T16:09:19;17.30;99.90
51996;DHT22;38010;53.264;6.592;2022-09-20T16:11:46;17.30;99.90
51996;DHT22;38010;53.264;6.592;2022-09-20T16:14:12;17.30;99.90
51996;DHT22;38010;53.264;6.592;2022-09-20T16:16:38;17.30;99.90
51996;DHT22;38010;53.264;6.592;2022-09-20T16:19:03;17.30;99.90
51996;DHT22;38010;53.264;6.592;2022-09-20T16:21:50;17.30;99.90
51996;DHT22;38010;53.264;6.592;2022-09-20T16:24:18;17.30;99.90
51996;DHT22;38010;53.264;6.592;2022-09-20T16:26:46;17.20;99.90
51996;DHT22;38010;53.264;6.592;2022-09-20T16:29:12;17.30;99.90
51996;DHT22;38010;53.264;6.592;2022-09-20T16:31:38;17.20;99.90
51996;DHT22;38010;53.264;6.592;2022-09-20T16:34:25;17.30;99.90
51996;DHT22;38010;53.264;6.592;2022-09-20T16:36:59;17.30;99.90
51996;DHT22;38010;53.264;6.592;2022-09-20T16:39:26;17.30;99.90
51996;DHT22;38010;53.264;6.592;2022-09-20T16:41:54;17.30;99.90
51996;DHT22;38010;53.264;6.592;2022-09-20T16:44:22;17.20;99.90
51996;DHT22;38010;53.264;6.592;2022-09-20T16:46:48;17.20;99.90
51996;DHT22;38010;53.264;6.592;2022-09-20T16:49:13;17.20;99.90
51996;DHT22;38010;53.264;6.592;2022-09-20T16:51:41;17.20;99.90
51996;DHT22;38010;53.264;6.592;2022-09-20T16:54:12;17.20;99.90
51996;DHT22;38010;53.264;6.592;2022-09-20T16:56:40;17.20;99.90
51996;DHT22;38010;53.264;6.592;2022-09-20T16:59:06;17.20;99.90
51996;DHT22;38010;53.264;6.592;2022-09-20T17:01:33;17.20;99.90
51996;DHT22;38010;53.264;6.592;2022-09-20T17:04:00;17.20;99.90
51996;DHT22;38010;53.264;6.592;2022-09-20T17:06:30;17.20;99.90
51996;DHT22;38010;53.264;6.592;2022-09-20T17:08:56;17.20;99.90
51996;DHT22;38010;53.264;6.592;2022-09-20T17:11:28;17.20;99.90
51996;DHT22;38010;53.264;6.592;2022-09-20T17:13:54;17.20;99.90
51996;DHT22;38010;53.264;6.592;2022-09-20T17:16:22;17.20;99.90
51996;DHT22;38010;53.264;6.592;2022-09-20T17:18:53;17.20;99.90
51996;DHT22;38010;53.264;6.592;2022-09-20T17:21:20;17.20;99.90
51996;DHT22;38010;53.264;6.592;2022-09-20T17:23:50;17.10;99.90
51996;DHT22;38010;53.264;6.592;2022-09-20T17:26:30;17.20;99.90
51996;DHT22;38010;53.264;6.592;2022-09-20T17:28:59;17.10;99.90
51996;DHT22;38010;53.264;6.592;2022-09-20T17:31:30;17.10;99.90
51996;DHT22;38010;53.264;6.592;2022-09-20T17:33:58;17.10;99.90
51996;DHT22;38010;53.264;6.592;2022-09-20T17:36:27;17.10;99.90
51996;DHT22;38010;53.264;6.592;2022-09-20T17:38:56;17.10;99.90
51996;DHT22;38010;53.264;6.592;2022-09-20T17:41:23;17.10;99.90
51996;DHT22;38010;53.264;6.592;2022-09-20T17:43:56;17.10;99.90
51996;DHT22;38010;53.264;6.592;2022-09-20T17:46:24;17.10;99.90
51996;DHT22;38010;53.264;6.592;2022-09-20T17:48:55;17.10;99.90
51996;DHT22;38010;53.264;6.592;2022-09-20T17:51:43;17.10;99.90
51996;DHT22;38010;53.264;6.592;2022-09-20T17:54:09;17.10;99.90
51996;DHT22;38010;53.264;6.592;2022-09-20T17:56:43;17.10;99.90
51996;DHT22;38010;53.264;6.592;2022-09-20T17:59:10;17.10;99.90
51996;DHT22;38010;53.264;6.592;2022-09-20T18:01:37;17.10;99.90
51996;DHT22;38010;53.264;6.592;2022-09-20T18:04:04;17.10;99.90
51996;DHT22;38010;53.264;6.592;2022-09-20T18:06:31;17.10;99.90
51996;DHT22;38010;53.264;6.592;2022-09-20T18:08:59;17.10;99.90
51996;DHT22;38010;53.264;6.592;2022-09-20T18:11:31;17.10;99.90
51996;DHT22;38010;53.264;6.592;2022-09-20T18:13:58;17.10;99.90
51996;DHT22;38010;53.264;6.592;2022-09-20T18:16:24;17.00;99.90
51996;DHT22;38010;53.264;6.592;2022-09-20T18:18:49;17.10;99.90
51996;DHT22;38010;53.264;6.592;2022-09-20T18:23:43;17.00;99.90
51996;DHT22;38010;53.264;6.592;2022-09-20T18:26:15;17.00;99.90
51996;DHT22;38010;53.264;6.592;2022-09-20T18:34:02;17.00;99.90
51996;DHT22;38010;53.264;6.592;2022-09-20T18:36:30;17.00;99.90
51996;DHT22;38010;53.264;6.592;2022-09-20T18:38:57;17.00;99.90
51996;DHT22;38010;53.264;6.592;2022-09-20T18:41:31;17.00;99.90
51996;DHT22;38010;53.264;6.592;2022-09-20T18:43:59;17.00;99.90
51996;DHT22;38010;53.264;6.592;2022-09-20T18:46:27;17.00;99.90
51996;DHT22;38010;53.264;6.592;2022-09-20T18:48:56;17.00;99.90
51996;DHT22;38010;53.264;6.592;2022-09-20T18:51:24;17.00;99.90
51996;DHT22;38010;53.264;6.592;2022-09-20T18:53:50;17.00;99.90
51996;DHT22;38010;53.264;6.592;2022-09-20T18:56:21;17.00;99.90
51996;DHT22;38010;53.264;6.592;2022-09-20T18:58:51;17.00;99.90
51996;DHT22;38010;53.264;6.592;2022-09-20T19:06:52;17.00;99.90
51996;DHT22;38010;53.264;6.592;2022-09-20T19:09:28;17.00;99.90
51996;DHT22;38010;53.264;6.592;2022-09-20T19:12:05;17.00;99.90
51996;DHT22;38010;53.264;6.592;2022-09-20T19:15:02;17.00;99.90
51996;DHT22;38010;53.264;6.592;2022-09-20T19:17:38;17.00;99.90
51996;DHT22;38010;53.264;6.592;2022-09-20T19:20:28;17.00;99.90
51996;DHT22;38010;53.264;6.592;2022-09-20T19:23:00;17.00;99.90
51996;DHT22;38010;53.264;6.592;2022-09-20T19:25:38;17.00;99.90
51996;DHT22;38010;53.264;6.592;2022-09-20T19:28:12;17.00;99.90
51996;DHT22;38010;53.264;6.592;2022-09-20T19:30:39;17.00;99.90
51996;DHT22;38010;53.264;6.592;2022-09-20T19:33:09;16.90;99.90
51996;DHT22;38010;53.264;6.592;2022-09-20T19:35:40;16.90;99.90
51996;DHT22;38010;53.264;6.592;2022-09-20T19:38:10;16.90;99.90
51996;DHT22;38010;53.264;6.592;2022-09-20T19:46:54;16.90;99.90
51996;DHT22;38010;53.264;6.592;2022-09-20T19:49:55;16.90;99.90
51996;DHT22;38010;53.264;6.592;2022-09-20T19:52:23;16.90;99.90
51996;DHT22;38010;53.264;6.592;2022-09-20T19:54:50;16.90;99.90
51996;DHT22;38010;53.264;6.592;2022-09-20T19:57:21;16.90;99.90
51996;DHT22;38010;53.264;6.592;2022-09-20T19:59:48;16.90;99.90
51996;DHT22;38010;53.264;6.592;2022-09-20T20:02:15;16.90;99.90
51996;DHT22;38010;53.264;6.592;2022-09-20T20:04:41;16.90;99.90
51996;DHT22;38010;53.264;6.592;2022-09-20T20:07:28;16.90;99.90
51996;DHT22;38010;53.264;6.592;2022-09-20T20:10:05;16.90;99.90
51996;DHT22;38010;53.264;6.592;2022-09-20T20:12:52;16.90;99.90
51996;DHT22;38010;53.264;6.592;2022-09-20T20:15:41;16.90;99.90
51996;DHT22;38010;53.264;6.592;2022-09-20T20:18:48;16.90;99.90
51996;DHT22;38010;53.264;6.592;2022-09-20T20:21:17;16.90;99.90
51996;DHT22;38010;53.264;6.592;2022-09-20T20:26:33;16.90;99.90
51996;DHT22;38010;53.264;6.592;2022-09-20T20:28:59;16.90;99.90
51996;DHT22;38010;53.264;6.592;2022-09-20T20:31:25;16.90;99.90
51996;DHT22;38010;53.264;6.592;2022-09-20T20:33:50;16.90;99.90
51996;DHT22;38010;53.264;6.592;2022-09-20T20:36:18;16.90;99.90
51996;DHT22;38010;53.264;6.592;2022-09-20T20:38:44;16.90;99.90
51996;DHT22;38010;53.264;6.592;2022-09-20T20:41:16;16.90;99.90
51996;DHT22;38010;53.264;6.592;2022-09-20T20:43:43;16.90;99.90
51996;DHT22;38010;53.264;6.592;2022-09-20T20:46:13;16.90;99.90
51996;DHT22;38010;53.264;6.592;2022-09-20T20:48:39;16.90;99.90
51996;DHT22;38010;53.264;6.592;2022-09-20T20:51:25;16.90;99.90
51996;DHT22;38010;53.264;6.592;2022-09-20T20:53:53;16.90;99.90
51996;DHT22;38010;53.264;6.592;2022-09-20T20:56:21;16.90;99.90
51996;DHT22;38010;53.264;6.592;2022-09-20T20:58:47;16.90;99.90
51996;DHT22;38010;53.264;6.592;2022-09-20T21:03:42;16.80;99.90
51996;DHT22;38010;53.264;6.592;2022-09-20T21:06:09;16.80;99.90
51996;DHT22;38010;53.264;6.592;2022-09-20T21:08:40;16.90;99.90
51996;DHT22;38010;53.264;6.592;2022-09-20T21:11:14;16.80;99.90
51996;DHT22;38010;53.264;6.592;2022-09-20T21:13:40;16.90;99.90
51996;DHT22;38010;53.264;6.592;2022-09-20T21:18:33;16.80;99.90
51996;DHT22;38010;53.264;6.592;2022-09-20T21:20:59;16.80;99.90
51996;DHT22;38010;53.264;6.592;2022-09-20T21:23:28;16.90;99.90